createdAt,value
2023-12-01T00:01:57.810Z,18.42
2023-12-01T00:04:24.524Z,16.02
2023-12-01T00:06:51.417Z,16.15
2023-12-01T00:09:18.046Z,17.00
2023-12-01T00:11:44.649Z,16.13
2023-12-01T00:14:11.413Z,17.10
2023-12-01T00:16:38.013Z,18.20
2023-12-01T00:19:04.997Z,17.33
2023-12-01T00:21:31.527Z,17.13
2023-12-01T00:23:58.296Z,17.83
2023-12-01T00:26:24.959Z,18.00
2023-12-01T00:28:57.331Z,19.65
2023-12-01T00:31:24.181Z,18.55
2023-12-01T00:33:52.554Z,19.77
2023-12-01T00:36:19.147Z,19.77
2023-12-01T00:38:45.780Z,20.90
2023-12-01T00:41:12.542Z,21.00
2023-12-01T00:43:39.197Z,22.98
2023-12-01T00:46:06.032Z,21.65
2023-12-01T00:48:32.673Z,22.45
2023-12-01T00:50:59.192Z,23.80
2023-12-01T00:53:25.696Z,21.42
2023-12-01T00:55:52.833Z,22.58
2023-12-01T00:58:19.462Z,22.30
2023-12-01T01:00:46.134Z,22.58
2023-12-01T01:03:12.743Z,23.65
2023-12-01T01:05:39.425Z,23.20
2023-12-01T01:08:06.059Z,22.40
2023-12-01T01:10:32.905Z,24.00
2023-12-01T01:12:59.525Z,22.77
2023-12-01T01:15:26.054Z,23.80
2023-12-01T01:17:52.727Z,23.40
2023-12-01T01:20:19.395Z,23.88
2023-12-01T01:22:46.072Z,23.67
2023-12-01T01:25:12.671Z,24.05
2023-12-01T01:27:39.296Z,23.83
2023-12-01T01:30:06.599Z,25.70
2023-12-01T01:32:33.214Z,24.65
2023-12-01T01:34:59.679Z,26.23
2023-12-01T01:37:26.136Z,24.77
2023-12-01T01:39:52.720Z,26.30
2023-12-01T01:42:19.327Z,25.92
2023-12-01T01:44:45.944Z,27.17
2023-12-01T01:47:12.455Z,27.67
2023-12-01T01:49:39.328Z,28.02
2023-12-01T01:52:06.295Z,27.65
2023-12-01T01:54:33.312Z,26.58
2023-12-01T01:57:00.022Z,27.45
2023-12-01T01:59:26.553Z,28.08
2023-12-01T02:01:53.366Z,28.23
2023-12-01T02:04:20.391Z,28.02
2023-12-01T02:06:47.457Z,28.10
2023-12-01T02:09:14.577Z,28.38
2023-12-01T02:11:41.599Z,27.02
2023-12-01T02:14:08.207Z,27.88
2023-12-01T02:16:34.918Z,27.27
2023-12-01T02:19:01.559Z,26.17
2023-12-01T02:21:28.668Z,29.27
2023-12-01T02:23:56.634Z,27.73
2023-12-01T02:26:23.969Z,27.65
2023-12-01T02:28:50.677Z,26.20
2023-12-01T02:31:18.765Z,27.35
2023-12-01T02:33:45.310Z,26.60
2023-12-01T02:36:14.212Z,29.02
2023-12-01T02:38:40.778Z,29.58
2023-12-01T02:41:07.642Z,28.70
2023-12-01T02:43:39.105Z,27.40
2023-12-01T02:46:05.852Z,28.25
2023-12-01T02:48:34.011Z,28.77
2023-12-01T02:51:00.564Z,28.30
2023-12-01T02:53:27.017Z,28.95
2023-12-01T02:55:53.486Z,28.38
2023-12-01T02:58:20.156Z,28.92
2023-12-01T03:00:46.969Z,29.17
2023-12-01T03:03:13.628Z,28.75
2023-12-01T03:05:40.744Z,28.20
2023-12-01T03:08:07.559Z,28.98
2023-12-01T03:10:35.436Z,28.50
2023-12-01T03:13:02.216Z,29.73
2023-12-01T03:15:30.351Z,26.90
2023-12-01T03:17:56.963Z,26.13
2023-12-01T03:20:23.581Z,26.40
2023-12-01T03:22:53.006Z,28.70
2023-12-01T03:25:19.620Z,26.63
2023-12-01T03:27:48.898Z,28.10
2023-12-01T03:32:50.977Z,26.98
2023-12-01T03:35:22.372Z,28.33
2023-12-01T03:37:50.386Z,27.45
2023-12-01T03:40:17.183Z,27.20
2023-12-01T03:42:49.044Z,27.48
2023-12-01T03:45:16.470Z,26.92
2023-12-01T03:47:47.369Z,27.27
2023-12-01T03:50:14.748Z,26.45
2023-12-01T03:52:43.070Z,27.58
2023-12-01T03:55:10.933Z,27.80
2023-12-01T03:57:38.625Z,27.20
2023-12-01T04:00:14.374Z,26.05
2023-12-01T04:02:42.669Z,27.67
2023-12-01T04:05:10.329Z,28.47
2023-12-01T04:07:37.220Z,28.20
2023-12-01T04:10:11.597Z,26.67
2023-12-01T04:12:45.939Z,28.23
2023-12-01T04:15:18.981Z,25.80
2023-12-01T04:17:47.490Z,26.95
2023-12-01T04:20:29.296Z,26.37
2023-12-01T04:23:01.364Z,26.85
2023-12-01T04:25:28.780Z,28.15
2023-12-01T04:27:57.440Z,26.70
2023-12-01T04:30:24.946Z,27.02
2023-12-01T04:32:57.504Z,25.70
2023-12-01T04:35:30.522Z,24.60
2023-12-01T04:37:58.036Z,26.20
2023-12-01T04:40:25.630Z,23.85
2023-12-01T04:42:52.960Z,23.77
2023-12-01T04:45:25.978Z,23.15
2023-12-01T04:47:53.670Z,23.35
2023-12-01T04:50:22.328Z,21.67
2023-12-01T04:52:50.036Z,21.00
2023-12-01T04:55:18.870Z,21.20
2023-12-01T04:57:46.544Z,21.33
2023-12-01T05:00:21.946Z,20.50
2023-12-01T05:02:56.399Z,19.85
2023-12-01T05:05:26.111Z,21.17
2023-12-01T05:07:57.271Z,20.63
2023-12-01T05:10:31.087Z,19.75
2023-12-01T05:12:59.221Z,19.83
2023-12-01T05:15:27.373Z,20.00
2023-12-01T05:18:05.578Z,19.88
2023-12-01T05:20:33.214Z,19.02
2023-12-01T05:23:01.651Z,20.05
2023-12-01T05:25:33.282Z,19.52
2023-12-01T05:28:01.108Z,19.13
2023-12-01T05:30:29.206Z,20.08
2023-12-01T05:32:57.109Z,19.10
2023-12-01T05:35:23.926Z,19.55
2023-12-01T05:37:51.656Z,19.23
2023-12-01T05:40:21.827Z,18.48
2023-12-01T05:42:49.679Z,21.17
2023-12-01T05:45:17.038Z,20.05
2023-12-01T05:47:45.545Z,20.88
2023-12-01T05:50:16.010Z,19.35
2023-12-01T05:52:43.875Z,20.80
2023-12-01T05:55:20.504Z,20.52
2023-12-01T05:57:50.266Z,21.75
2023-12-01T06:00:18.877Z,21.08
2023-12-01T06:02:46.197Z,21.60
2023-12-01T06:05:17.008Z,20.05
2023-12-01T06:07:45.534Z,21.02
2023-12-01T06:10:13.080Z,20.27
2023-12-01T06:12:40.523Z,22.02
2023-12-01T06:15:10.665Z,19.90
2023-12-01T06:17:42.860Z,20.10
2023-12-01T06:20:18.122Z,20.98
2023-12-01T06:22:48.843Z,20.45
2023-12-01T06:25:20.534Z,20.13
2023-12-01T06:27:47.861Z,19.75
2023-12-01T06:30:15.753Z,20.90
2023-12-01T06:32:43.311Z,19.60
2023-12-01T06:35:11.884Z,19.15
2023-12-01T06:37:42.971Z,17.50
2023-12-01T06:40:13.610Z,19.52
2023-12-01T06:42:41.392Z,19.48
2023-12-01T06:45:11.460Z,19.40
2023-12-01T06:47:39.493Z,18.35
2023-12-01T06:50:07.153Z,18.40
2023-12-01T06:52:35.317Z,18.80
2023-12-01T06:55:02.154Z,19.15
2023-12-01T06:57:28.653Z,19.40
2023-12-01T06:59:55.208Z,19.13
2023-12-01T07:02:21.925Z,18.02
2023-12-01T07:04:48.459Z,20.02
2023-12-01T07:07:15.087Z,19.25
2023-12-01T07:09:53.741Z,19.20
2023-12-01T07:12:25.364Z,20.73
2023-12-01T07:14:52.012Z,18.00
2023-12-01T07:17:18.689Z,19.80
2023-12-01T07:19:46.413Z,20.92
2023-12-01T07:22:13.002Z,18.70
2023-12-01T07:24:39.800Z,20.00
2023-12-01T07:27:06.283Z,19.65
2023-12-01T07:29:32.793Z,20.02
2023-12-01T07:32:00.894Z,18.80
2023-12-01T07:34:27.585Z,19.73
2023-12-01T07:36:54.197Z,20.40
2023-12-01T07:39:24.053Z,19.67
2023-12-01T07:41:51.245Z,20.45
2023-12-01T07:44:18.562Z,18.45
2023-12-01T07:49:13.641Z,18.23
2023-12-01T07:51:40.377Z,19.35
2023-12-01T07:54:07.067Z,19.17
2023-12-01T07:56:33.608Z,18.58
2023-12-01T07:59:00.224Z,19.67
2023-12-01T08:01:26.881Z,19.00
2023-12-01T08:03:53.555Z,20.02
2023-12-01T08:06:20.214Z,19.27
2023-12-01T08:08:46.774Z,19.58
2023-12-01T08:11:13.329Z,19.02
2023-12-01T08:13:39.890Z,18.60
2023-12-01T08:16:07.150Z,18.25
2023-12-01T08:18:33.916Z,18.95
2023-12-01T08:21:00.703Z,18.42
2023-12-01T08:23:27.332Z,18.05
2023-12-01T08:25:54.136Z,15.98
2023-12-01T08:28:20.607Z,19.27
2023-12-01T08:30:49.160Z,18.27
2023-12-01T08:33:16.384Z,18.00
2023-12-01T08:35:43.264Z,17.50
2023-12-01T08:38:11.282Z,17.88
2023-12-01T08:40:43.315Z,17.15
2023-12-01T08:43:10.978Z,17.85
2023-12-01T08:45:38.155Z,17.20
2023-12-01T08:48:05.892Z,16.88
2023-12-01T08:50:32.431Z,16.17
2023-12-01T08:52:59.096Z,16.73
2023-12-01T08:55:25.802Z,15.82
2023-12-01T08:57:52.374Z,16.58
2023-12-01T09:00:22.693Z,16.92
2023-12-01T09:02:51.246Z,16.88
2023-12-01T09:05:18.844Z,15.85
2023-12-01T09:07:48.207Z,15.77
2023-12-01T09:10:20.926Z,15.25
2023-12-01T09:12:47.612Z,15.48
2023-12-01T09:15:14.783Z,15.00
2023-12-01T09:17:41.359Z,15.00
2023-12-01T09:20:10.216Z,15.85
2023-12-01T09:22:40.595Z,14.70
2023-12-01T09:25:08.322Z,15.20
2023-12-01T09:27:38.748Z,15.27
2023-12-01T09:30:12.287Z,15.07
2023-12-01T09:32:39.116Z,15.88
2023-12-01T09:35:06.558Z,14.80
2023-12-01T09:37:33.778Z,15.50
2023-12-01T09:40:01.889Z,15.57
2023-12-01T09:44:58.742Z,15.23
2023-12-01T09:47:26.357Z,16.63
2023-12-01T09:49:53.344Z,17.52
2023-12-01T09:52:20.109Z,18.88
2023-12-01T09:55:06.898Z,22.17
2023-12-01T09:57:33.686Z,19.15
2023-12-01T10:00:00.821Z,17.45
2023-12-01T10:02:29.681Z,18.48
2023-12-01T10:05:02.206Z,22.40
2023-12-01T10:07:29.007Z,43.83
2023-12-01T10:09:55.773Z,39.05
2023-12-01T10:12:22.300Z,22.17
2023-12-01T10:14:48.994Z,18.63
2023-12-01T10:17:15.706Z,19.13
2023-12-01T10:19:49.383Z,17.50
2023-12-01T10:22:20.856Z,18.77
2023-12-01T10:24:58.182Z,18.60
2023-12-01T10:27:25.222Z,18.55
2023-12-01T10:29:51.915Z,17.42
2023-12-01T10:32:21.855Z,18.25
2023-12-01T10:34:50.176Z,19.63
2023-12-01T10:37:27.563Z,18.08
2023-12-01T10:39:58.074Z,19.50
2023-12-01T10:42:25.829Z,18.00
2023-12-01T10:44:53.812Z,19.27
2023-12-01T10:47:21.206Z,18.77
2023-12-01T10:49:49.625Z,19.27
2023-12-01T10:52:16.292Z,19.02
2023-12-01T10:54:43.525Z,18.33
2023-12-01T10:57:27.569Z,17.70
2023-12-01T10:59:56.732Z,18.80
2023-12-01T11:02:24.776Z,18.17
2023-12-01T11:04:51.585Z,19.25
2023-12-01T11:07:35.296Z,18.00
2023-12-01T11:10:08.337Z,18.63
2023-12-01T11:12:54.496Z,32.10
2023-12-01T11:15:24.969Z,42.53
2023-12-01T11:17:55.611Z,21.50
2023-12-01T11:20:42.476Z,17.88
2023-12-01T11:23:09.401Z,19.73
2023-12-01T11:25:45.005Z,17.00
2023-12-01T11:28:23.855Z,16.73
2023-12-01T11:31:09.236Z,17.30
2023-12-01T11:33:50.142Z,16.63
2023-12-01T11:36:24.882Z,18.55
2023-12-01T11:39:16.342Z,16.05
2023-12-01T11:41:43.043Z,15.80
2023-12-01T11:44:15.903Z,15.90
2023-12-01T11:46:42.825Z,14.65
2023-12-01T11:49:10.665Z,14.75
2023-12-01T11:51:37.619Z,14.60
2023-12-01T11:54:05.707Z,13.02
2023-12-01T11:56:35.323Z,14.07
2023-12-01T11:59:03.027Z,14.25
2023-12-01T12:01:31.317Z,12.27
2023-12-01T12:03:58.964Z,12.20
2023-12-01T12:06:26.799Z,13.20
2023-12-01T12:08:53.749Z,13.20
2023-12-01T12:11:21.061Z,12.48
2023-12-01T12:13:55.246Z,16.15
2023-12-01T12:16:23.466Z,11.27
2023-12-01T12:18:50.791Z,10.48
2023-12-01T12:21:17.698Z,12.57
2023-12-01T12:23:45.357Z,11.70
2023-12-01T12:26:19.892Z,11.88
2023-12-01T12:29:01.407Z,10.32
2023-12-01T12:31:31.034Z,10.02
2023-12-01T12:33:59.754Z,17.48
2023-12-01T12:36:28.232Z,13.30
2023-12-01T12:38:56.389Z,13.63
2023-12-01T12:41:30.913Z,15.77
2023-12-01T12:44:02.155Z,18.75
2023-12-01T12:46:30.235Z,12.10
2023-12-01T12:48:59.041Z,9.85
2023-12-01T12:51:27.537Z,15.90
2023-12-01T12:53:55.194Z,9.65
2023-12-01T12:56:22.976Z,8.88
2023-12-01T12:59:00.340Z,8.90
2023-12-01T13:01:27.895Z,8.60
2023-12-01T13:03:55.411Z,9.32
2023-12-01T13:06:22.347Z,9.65
2023-12-01T13:08:49.394Z,12.00
2023-12-01T13:11:16.739Z,8.75
2023-12-01T13:13:43.740Z,8.52
2023-12-01T13:16:10.825Z,9.20
2023-12-01T13:18:41.707Z,10.43
2023-12-01T13:21:10.148Z,7.55
2023-12-01T13:23:37.595Z,8.13
2023-12-01T13:26:04.924Z,8.10
2023-12-01T13:28:32.069Z,7.88
2023-12-01T13:30:58.748Z,8.27
2023-12-01T13:33:26.335Z,10.00
2023-12-01T13:35:53.337Z,8.57
2023-12-01T13:38:19.883Z,11.05
2023-12-01T13:40:46.554Z,7.63
2023-12-01T13:43:13.540Z,7.85
2023-12-01T13:45:40.238Z,7.20
2023-12-01T13:48:07.171Z,8.52
2023-12-01T13:50:33.839Z,8.40
2023-12-01T13:53:00.459Z,7.95
2023-12-01T13:55:27.299Z,7.60
2023-12-01T13:57:53.996Z,8.23
2023-12-01T14:00:21.081Z,7.97
2023-12-01T14:02:49.193Z,8.10
2023-12-01T14:05:18.080Z,7.60
2023-12-01T14:07:45.568Z,8.70
2023-12-01T14:10:12.732Z,8.30
2023-12-01T14:12:41.411Z,8.68
2023-12-01T14:15:08.467Z,9.10
2023-12-01T14:17:35.875Z,10.10
2023-12-01T14:20:04.485Z,8.15
2023-12-01T14:22:31.037Z,8.60
2023-12-01T14:24:57.697Z,9.52
2023-12-01T14:27:24.202Z,9.88
2023-12-01T14:29:51.120Z,8.57
2023-12-01T14:32:21.483Z,9.30
2023-12-01T14:34:51.229Z,9.73
2023-12-01T14:37:19.172Z,9.48
2023-12-01T14:39:46.632Z,9.85
2023-12-01T14:42:13.182Z,10.18
2023-12-01T14:44:40.988Z,9.35
2023-12-01T14:47:08.434Z,10.00
2023-12-01T14:49:35.438Z,10.13
2023-12-01T14:52:01.909Z,8.95
2023-12-01T14:54:28.529Z,9.63
2023-12-01T14:56:55.015Z,10.68
2023-12-01T14:59:21.635Z,13.70
2023-12-01T15:01:52.055Z,9.60
2023-12-01T15:04:18.757Z,9.18
2023-12-01T15:06:45.388Z,10.35
2023-12-01T15:09:15.198Z,9.77
2023-12-01T15:11:46.136Z,11.35
2023-12-01T15:14:13.159Z,9.55
2023-12-01T15:16:40.601Z,9.35
2023-12-01T15:19:08.529Z,9.90
2023-12-01T15:21:35.257Z,9.98
2023-12-01T15:24:02.136Z,9.32
2023-12-01T15:26:28.713Z,9.38
2023-12-01T15:28:55.653Z,9.30
2023-12-01T15:31:22.212Z,9.07
2023-12-01T15:33:49.710Z,11.30
2023-12-01T15:36:16.349Z,8.60
2023-12-01T15:38:42.912Z,10.02
2023-12-01T15:41:09.559Z,9.93
2023-12-01T15:43:37.249Z,9.55
2023-12-01T15:46:03.883Z,9.63
2023-12-01T15:48:30.510Z,9.80
2023-12-01T15:50:57.253Z,10.52
2023-12-01T15:53:24.251Z,10.40
2023-12-01T15:55:51.325Z,9.63
2023-12-01T15:58:17.777Z,10.07
2023-12-01T16:00:46.393Z,16.88
2023-12-01T16:03:15.380Z,12.40
2023-12-01T16:05:42.300Z,10.32
2023-12-01T16:08:09.108Z,10.40
2023-12-01T16:10:35.818Z,10.45
2023-12-01T16:13:02.276Z,11.63
2023-12-01T16:15:28.864Z,10.52
2023-12-01T16:17:55.476Z,9.10
2023-12-01T16:20:22.546Z,12.45
2023-12-01T16:22:49.156Z,15.95
2023-12-01T16:25:15.717Z,10.98
2023-12-01T16:27:42.275Z,9.98
2023-12-01T16:30:09.145Z,10.10
2023-12-01T16:32:39.787Z,9.85
2023-12-01T16:35:12.310Z,9.13
2023-12-01T16:37:38.987Z,9.57
2023-12-01T16:40:09.346Z,10.32
2023-12-01T16:42:36.835Z,9.25
2023-12-01T16:45:03.595Z,9.98
2023-12-01T16:47:30.691Z,9.38
2023-12-01T16:49:58.301Z,10.48
2023-12-01T16:52:25.211Z,9.63
2023-12-01T16:54:51.885Z,10.40
2023-12-01T16:57:18.832Z,12.27
2023-12-01T16:59:47.099Z,10.55
2023-12-01T17:02:13.625Z,8.10
2023-12-01T17:04:40.104Z,17.55
2023-12-01T17:07:09.827Z,8.38
2023-12-01T17:09:37.158Z,11.77
2023-12-01T17:12:04.050Z,8.00
2023-12-01T17:14:37.177Z,11.32
2023-12-01T17:17:04.853Z,7.95
2023-12-01T17:19:31.991Z,7.95
2023-12-01T17:21:58.926Z,8.43
2023-12-01T17:24:25.767Z,7.55
2023-12-01T17:26:52.653Z,9.23
2023-12-01T17:29:19.816Z,7.63
2023-12-01T17:31:48.190Z,8.82
2023-12-01T17:34:14.935Z,8.57
2023-12-01T17:36:44.693Z,8.38
2023-12-01T17:39:11.236Z,8.00
2023-12-01T17:41:37.758Z,7.40
2023-12-01T17:44:04.412Z,7.63
2023-12-01T17:46:30.967Z,8.10
2023-12-01T17:48:57.681Z,7.22
2023-12-01T17:51:24.412Z,7.45
2023-12-01T17:53:51.114Z,7.10
2023-12-01T17:56:20.372Z,8.13
2023-12-01T17:58:46.805Z,8.23
2023-12-01T18:01:13.292Z,8.38
2023-12-01T18:03:40.448Z,8.25
2023-12-01T18:06:07.406Z,7.97
2023-12-01T18:08:36.955Z,7.80
2023-12-01T18:11:03.465Z,7.25
2023-12-01T18:13:29.926Z,7.63
2023-12-01T18:15:56.738Z,8.32
2023-12-01T18:18:23.427Z,7.82
2023-12-01T18:20:50.324Z,8.27
2023-12-01T18:23:16.972Z,8.13
2023-12-01T18:25:43.542Z,8.38
2023-12-01T18:28:10.126Z,7.72
2023-12-01T18:30:36.610Z,8.18
2023-12-01T18:33:03.435Z,8.48
2023-12-01T18:35:30.123Z,8.20
2023-12-01T18:37:56.702Z,7.72
2023-12-01T18:40:23.305Z,8.13
2023-12-01T18:42:49.916Z,8.77
2023-12-01T18:45:16.521Z,8.05
2023-12-01T18:47:43.004Z,8.88
2023-12-01T18:50:09.741Z,8.93
2023-12-01T18:52:36.330Z,7.97
2023-12-01T18:55:03.798Z,8.23
2023-12-01T18:57:30.441Z,8.50
2023-12-01T18:59:57.112Z,8.05
2023-12-01T19:02:23.719Z,8.15
2023-12-01T19:04:50.251Z,8.63
2023-12-01T19:07:16.741Z,8.07
2023-12-01T19:09:43.463Z,8.60
2023-12-01T19:12:10.044Z,8.27
2023-12-01T19:14:37.141Z,8.57
2023-12-01T19:17:03.906Z,8.40
2023-12-01T19:19:30.423Z,8.35
2023-12-01T19:21:57.046Z,8.13
2023-12-01T19:24:23.574Z,8.20
2023-12-01T19:26:50.161Z,8.20
2023-12-01T19:29:17.536Z,7.13
2023-12-01T19:31:44.084Z,8.00
2023-12-01T19:34:10.707Z,7.30
2023-12-01T19:36:40.018Z,7.88
2023-12-01T19:39:06.732Z,8.10
2023-12-01T19:41:33.179Z,8.10
2023-12-01T19:44:02.625Z,7.72
2023-12-01T19:46:29.138Z,8.65
2023-12-01T19:48:56.986Z,8.50
2023-12-01T19:51:23.624Z,7.80
2023-12-01T19:53:50.248Z,8.02
2023-12-01T19:56:16.741Z,8.75
2023-12-01T19:58:43.698Z,8.55
2023-12-01T20:01:10.240Z,8.38
2023-12-01T20:03:37.661Z,7.93
2023-12-01T20:06:04.435Z,8.18
2023-12-01T20:08:31.032Z,8.55
2023-12-01T20:10:58.068Z,8.02
2023-12-01T20:13:24.700Z,8.13
2023-12-01T20:15:51.660Z,8.60
2023-12-01T20:18:19.270Z,8.48
2023-12-01T20:20:46.045Z,9.40
2023-12-01T20:23:13.047Z,8.50
2023-12-01T20:25:39.589Z,8.82
2023-12-01T20:28:06.052Z,9.30
2023-12-01T20:30:32.582Z,8.68
2023-12-01T20:32:59.473Z,8.10
2023-12-01T20:35:26.243Z,8.30
2023-12-01T20:37:54.128Z,7.65
2023-12-01T20:40:21.661Z,10.15
2023-12-01T20:42:48.426Z,10.10
2023-12-01T20:45:14.955Z,9.18
2023-12-01T20:47:41.633Z,7.60
2023-12-01T20:50:09.191Z,8.25
2023-12-01T20:52:35.877Z,8.43
2023-12-01T20:55:02.366Z,8.27
2023-12-01T20:57:28.894Z,8.73
2023-12-01T20:59:56.829Z,8.00
2023-12-01T21:02:23.352Z,8.73
2023-12-01T21:04:49.853Z,8.70
2023-12-01T21:07:16.520Z,9.18
2023-12-01T21:09:42.969Z,8.60
2023-12-01T21:12:09.553Z,8.18
2023-12-01T21:14:36.071Z,8.55
2023-12-01T21:17:02.611Z,8.15
2023-12-01T21:19:29.239Z,7.68
2023-12-01T21:21:55.889Z,7.90
2023-12-01T21:24:22.493Z,8.25
2023-12-01T21:26:50.318Z,8.38
2023-12-01T21:29:17.051Z,7.15
2023-12-01T21:31:43.553Z,9.40
2023-12-01T21:34:10.370Z,8.60
2023-12-01T21:36:36.908Z,8.25
2023-12-01T21:39:03.616Z,7.82
2023-12-01T21:41:30.133Z,8.90
2023-12-01T21:43:56.757Z,9.20
2023-12-01T21:46:23.277Z,8.43
2023-12-01T21:48:49.871Z,8.40
2023-12-01T21:51:16.637Z,8.60
2023-12-01T21:53:43.119Z,8.48
2023-12-01T21:56:09.862Z,7.88
2023-12-01T21:58:36.394Z,9.52
2023-12-01T22:01:02.876Z,10.63
2023-12-01T22:03:29.493Z,9.80
2023-12-01T22:05:56.905Z,9.38
2023-12-01T22:08:24.251Z,9.25
2023-12-01T22:10:50.873Z,9.98
2023-12-01T22:13:17.328Z,11.90
2023-12-01T22:15:43.782Z,11.05
2023-12-01T22:18:11.036Z,11.73
2023-12-01T22:20:37.700Z,11.63
2023-12-01T22:23:04.189Z,11.05
2023-12-01T22:25:30.641Z,12.65
2023-12-01T22:27:57.245Z,11.30
2023-12-01T22:30:23.822Z,11.35
2023-12-01T22:32:50.587Z,12.05
2023-12-01T22:35:17.059Z,11.23
2023-12-01T22:37:43.772Z,11.63
2023-12-01T22:40:10.892Z,11.48
2023-12-01T22:42:37.350Z,11.57
2023-12-01T22:45:05.244Z,11.73
2023-12-01T22:47:31.971Z,11.75
2023-12-01T22:49:58.510Z,11.65
2023-12-01T22:52:25.083Z,11.63
2023-12-01T22:55:17.089Z,11.90
2023-12-01T22:57:43.730Z,11.35
2023-12-01T23:00:27.045Z,11.68
2023-12-01T23:02:59.629Z,11.07
2023-12-01T23:05:26.936Z,12.25
2023-12-01T23:07:55.192Z,11.80
2023-12-01T23:10:21.770Z,12.10
2023-12-01T23:12:48.841Z,12.07
2023-12-01T23:15:15.776Z,12.13
2023-12-01T23:17:42.661Z,12.80
2023-12-01T23:20:10.654Z,12.52
2023-12-01T23:22:37.520Z,12.30
2023-12-01T23:25:06.400Z,12.52
2023-12-01T23:27:35.944Z,12.30
2023-12-01T23:30:03.000Z,12.88
2023-12-01T23:32:29.805Z,12.60
2023-12-01T23:34:56.423Z,12.40
2023-12-01T23:37:23.170Z,12.73
2023-12-01T23:39:50.509Z,12.40
2023-12-01T23:42:17.419Z,12.38
2023-12-01T23:44:44.164Z,12.52
2023-12-01T23:47:10.828Z,13.18
2023-12-01T23:49:37.610Z,13.35
2023-12-01T23:52:04.516Z,12.45
2023-12-01T23:54:31.393Z,12.93
2023-12-01T23:56:58.098Z,13.57
2023-12-01T23:59:24.789Z,12.40
